sensor_id;sensor_type;location;lat;lon;timestamp;P1;durP1;ratioP1;P2;durP2;ratioP2
63010;SDS011;49100;48.842;2.166;2022-09-27T11:14:22;11.25;;;10.00;;
63010;SDS011;49100;48.842;2.166;2022-09-27T11:20:06;11.75;;;11.75;;
63010;SDS011;49100;48.842;2.166;2022-09-27T11:29:00;10.00;;;8.25;;
63010;SDS011;49100;48.842;2.166;2022-09-27T12:05:54;8.75;;;7.75;;
63010;SDS011;49100;48.842;2.166;2022-09-27T12:12:00;7.75;;;7.25;;
63010;SDS011;49100;48.842;2.166;2022-09-27T12:15:01;14.00;;;9.25;;
63010;SDS011;49100;48.842;2.166;2022-09-27T12:18:06;12.00;;;10.00;;
63010;SDS011;49100;48.842;2.166;2022-09-27T12:20:55;8.00;;;7.50;;
63010;SDS011;49100;48.842;2.166;2022-09-27T12:26:34;9.75;;;8.75;;
63010;SDS011;49100;48.842;2.166;2022-09-27T12:29:39;9.75;;;9.25;;
63010;SDS011;49100;48.842;2.166;2022-09-27T12:32:26;13.00;;;10.00;;
63010;SDS011;49100;48.842;2.166;2022-09-27T12:35:27;10.00;;;8.00;;
63010;SDS011;49100;48.842;2.166;2022-09-27T12:38:18;12.50;;;10.50;;
63010;SDS011;49100;48.842;2.166;2022-09-27T12:41:07;12.75;;;11.25;;
63010;SDS011;49100;48.842;2.166;2022-09-27T12:43:54;9.50;;;9.00;;
63010;SDS011;49100;48.842;2.166;2022-09-27T12:49:33;10.00;;;8.00;;
63010;SDS011;49100;48.842;2.166;2022-09-27T12:52:44;10.00;;;8.25;;
63010;SDS011;49100;48.842;2.166;2022-09-27T13:04:43;8.75;;;5.50;;
63010;SDS011;49100;48.842;2.166;2022-09-27T13:07:46;9.50;;;8.00;;
63010;SDS011;49100;48.842;2.166;2022-09-27T13:13:31;11.50;;;8.50;;
63010;SDS011;49100;48.842;2.166;2022-09-27T13:16:17;11.25;;;9.00;;
63010;SDS011;49100;48.842;2.166;2022-09-27T13:19:01;11.00;;;10.00;;
63010;SDS011;49100;48.842;2.166;2022-09-27T13:39:15;5.75;;;5.25;;
63010;SDS011;49100;48.842;2.166;2022-09-27T13:42:05;7.25;;;4.75;;
63010;SDS011;49100;48.842;2.166;2022-09-27T13:48:08;7.00;;;6.75;;
63010;SDS011;49100;48.842;2.166;2022-09-27T13:51:17;9.00;;;7.00;;
63010;SDS011;49100;48.842;2.166;2022-09-27T13:54:36;9.75;;;6.75;;
63010;SDS011;49100;48.842;2.166;2022-09-27T14:00:38;7.75;;;6.75;;
63010;SDS011;49100;48.842;2.166;2022-09-27T14:03:30;9.00;;;7.25;;
63010;SDS011;49100;48.842;2.166;2022-09-27T14:06:25;10.00;;;7.75;;
63010;SDS011;49100;48.842;2.166;2022-09-27T14:09:17;9.75;;;6.75;;
63010;SDS011;49100;48.842;2.166;2022-09-27T14:12:14;10.25;;;8.00;;
63010;SDS011;49100;48.842;2.166;2022-09-27T14:15:16;6.75;;;5.75;;
63010;SDS011;49100;48.842;2.166;2022-09-27T14:18:04;8.25;;;7.75;;
63010;SDS011;49100;48.842;2.166;2022-09-27T14:20:54;9.00;;;7.50;;
63010;SDS011;49100;48.842;2.166;2022-09-27T14:30:07;9.25;;;7.75;;
63010;SDS011;49100;48.842;2.166;2022-09-27T14:32:56;21.25;;;14.75;;
63010;SDS011;49100;48.842;2.166;2022-09-27T14:35:46;7.25;;;6.25;;
63010;SDS011;49100;48.842;2.166;2022-09-27T14:38:50;8.50;;;6.50;;
63010;SDS011;49100;48.842;2.166;2022-09-27T14:41:35;19.00;;;18.50;;
63010;SDS011;49100;48.842;2.166;2022-09-27T14:44:20;12.50;;;11.25;;
63010;SDS011;49100;48.842;2.166;2022-09-27T14:50:15;7.25;;;6.25;;
63010;SDS011;49100;48.842;2.166;2022-09-27T14:53:02;12.75;;;8.25;;
63010;SDS011;49100;48.842;2.166;2022-09-27T14:56:03;7.00;;;7.00;;
63010;SDS011;49100;48.842;2.166;2022-09-27T14:58:50;5.75;;;5.00;;
63010;SDS011;49100;48.842;2.166;2022-09-27T15:01:39;9.75;;;7.25;;
63010;SDS011;49100;48.842;2.166;2022-09-27T15:04:32;5.50;;;4.50;;
63010;SDS011;49100;48.842;2.166;2022-09-27T15:07:17;6.50;;;5.00;;
63010;SDS011;49100;48.842;2.166;2022-09-27T15:10:04;8.00;;;5.75;;
63010;SDS011;49100;48.842;2.166;2022-09-27T15:12:49;4.00;;;4.00;;
63010;SDS011;49100;48.842;2.166;2022-09-27T15:15:37;4.50;;;3.50;;
63010;SDS011;49100;48.842;2.166;2022-09-27T15:21:34;5.25;;;3.25;;
63010;SDS011;49100;48.842;2.166;2022-09-27T15:27:54;4.00;;;3.75;;
63010;SDS011;49100;48.842;2.166;2022-09-27T15:30:40;6.00;;;5.00;;
63010;SDS011;49100;48.842;2.166;2022-09-27T15:33:32;6.75;;;3.75;;
63010;SDS011;49100;48.842;2.166;2022-09-27T15:36:18;4.50;;;4.50;;
63010;SDS011;49100;48.842;2.166;2022-09-27T15:39:35;7.25;;;5.00;;
63010;SDS011;49100;48.842;2.166;2022-09-27T15:42:20;18.50;;;13.50;;
63010;SDS011;49100;48.842;2.166;2022-09-27T15:45:07;2.75;;;1.25;;
63010;SDS011;49100;48.842;2.166;2022-09-27T15:48:19;6.50;;;5.50;;
63010;SDS011;49100;48.842;2.166;2022-09-27T15:51:20;4.00;;;3.75;;
63010;SDS011;49100;48.842;2.166;2022-09-27T15:54:26;4.25;;;2.00;;
63010;SDS011;49100;48.842;2.166;2022-09-27T15:57:13;5.00;;;3.00;;
63010;SDS011;49100;48.842;2.166;2022-09-27T15:59:57;5.75;;;3.75;;
63010;SDS011;49100;48.842;2.166;2022-09-27T16:02:46;5.50;;;4.50;;
63010;SDS011;49100;48.842;2.166;2022-09-27T16:05:31;5.75;;;4.00;;
63010;SDS011;49100;48.842;2.166;2022-09-27T16:08:16;4.25;;;2.75;;
63010;SDS011;49100;48.842;2.166;2022-09-27T16:11:08;4.00;;;4.00;;
63010;SDS011;49100;48.842;2.166;2022-09-27T16:13:56;5.50;;;5.00;;
63010;SDS011;49100;48.842;2.166;2022-09-27T16:16:44;3.75;;;2.75;;
63010;SDS011;49100;48.842;2.166;2022-09-27T16:19:30;6.25;;;4.00;;
63010;SDS011;49100;48.842;2.166;2022-09-27T16:22:14;7.00;;;4.50;;
63010;SDS011;49100;48.842;2.166;2022-09-27T16:25:01;6.50;;;4.25;;
63010;SDS011;49100;48.842;2.166;2022-09-27T16:27:46;9.75;;;7.75;;
63010;SDS011;49100;48.842;2.166;2022-09-27T16:30:30;2.50;;;1.00;;
63010;SDS011;49100;48.842;2.166;2022-09-27T16:33:18;8.50;;;6.00;;
63010;SDS011;49100;48.842;2.166;2022-09-27T16:36:06;8.75;;;5.00;;
63010;SDS011;49100;48.842;2.166;2022-09-27T16:38:58;6.50;;;6.50;;
63010;SDS011;49100;48.842;2.166;2022-09-27T16:41:43;12.25;;;6.25;;
63010;SDS011;49100;48.842;2.166;2022-09-27T16:44:27;13.50;;;6.25;;
63010;SDS011;49100;48.842;2.166;2022-09-27T16:47:11;8.00;;;8.00;;
63010;SDS011;49100;48.842;2.166;2022-09-27T16:49:56;11.25;;;8.75;;
63010;SDS011;49100;48.842;2.166;2022-09-27T16:52:59;23.25;;;22.00;;
63010;SDS011;49100;48.842;2.166;2022-09-27T16:55:44;29.25;;;25.00;;
63010;SDS011;49100;48.842;2.166;2022-09-27T16:58:28;13.00;;;11.25;;
63010;SDS011;49100;48.842;2.166;2022-09-27T17:01:13;12.75;;;11.00;;
63010;SDS011;49100;48.842;2.166;2022-09-27T17:04:01;7.00;;;6.50;;
63010;SDS011;49100;48.842;2.166;2022-09-27T17:06:46;12.00;;;9.00;;
63010;SDS011;49100;48.842;2.166;2022-09-27T17:09:31;10.25;;;9.50;;
63010;SDS011;49100;48.842;2.166;2022-09-27T17:12:15;8.75;;;6.00;;
63010;SDS011;49100;48.842;2.166;2022-09-27T17:14:59;6.75;;;5.75;;
63010;SDS011;49100;48.842;2.166;2022-09-27T17:17:47;9.25;;;6.50;;
63010;SDS011;49100;48.842;2.166;2022-09-27T17:20:32;13.00;;;10.00;;
63010;SDS011;49100;48.842;2.166;2022-09-27T17:23:16;16.75;;;12.25;;
63010;SDS011;49100;48.842;2.166;2022-09-27T17:26:05;9.25;;;5.00;;
63010;SDS011;49100;48.842;2.166;2022-09-27T17:28:51;16.50;;;12.50;;
63010;SDS011;49100;48.842;2.166;2022-09-27T17:31:37;12.50;;;9.75;;
63010;SDS011;49100;48.842;2.166;2022-09-27T17:34:23;14.00;;;13.50;;
63010;SDS011;49100;48.842;2.166;2022-09-27T17:37:08;14.50;;;10.50;;
63010;SDS011;49100;48.842;2.166;2022-09-27T17:39:56;11.75;;;8.50;;
63010;SDS011;49100;48.842;2.166;2022-09-27T17:42:40;13.75;;;9.50;;
63010;SDS011;49100;48.842;2.166;2022-09-27T17:45:25;13.25;;;10.25;;
63010;SDS011;49100;48.842;2.166;2022-09-27T17:48:09;26.25;;;21.75;;
63010;SDS011;49100;48.842;2.166;2022-09-27T17:51:12;19.75;;;10.50;;
63010;SDS011;49100;48.842;2.166;2022-09-27T17:53:57;35.50;;;26.50;;
63010;SDS011;49100;48.842;2.166;2022-09-27T17:56:42;47.25;;;35.00;;
63010;SDS011;49100;48.842;2.166;2022-09-27T17:59:27;10.25;;;8.00;;
63010;SDS011;49100;48.842;2.166;2022-09-27T18:02:11;12.75;;;9.00;;
63010;SDS011;49100;48.842;2.166;2022-09-27T18:04:55;11.50;;;10.75;;
63010;SDS011;49100;48.842;2.166;2022-09-27T18:07:40;12.25;;;7.00;;
63010;SDS011;49100;48.842;2.166;2022-09-27T18:10:25;7.00;;;5.00;;
63010;SDS011;49100;48.842;2.166;2022-09-27T18:13:10;5.50;;;4.50;;
63010;SDS011;49100;48.842;2.166;2022-09-27T18:15:55;7.50;;;5.00;;
63010;SDS011;49100;48.842;2.166;2022-09-27T18:18:44;10.75;;;7.00;;
63010;SDS011;49100;48.842;2.166;2022-09-27T18:21:33;12.75;;;6.25;;
63010;SDS011;49100;48.842;2.166;2022-09-27T18:24:17;5.50;;;4.00;;
63010;SDS011;49100;48.842;2.166;2022-09-27T18:27:02;4.75;;;4.00;;
63010;SDS011;49100;48.842;2.166;2022-09-27T18:29:47;4.25;;;3.50;;
63010;SDS011;49100;48.842;2.166;2022-09-27T18:32:31;2.75;;;2.75;;
63010;SDS011;49100;48.842;2.166;2022-09-27T18:35:16;2.75;;;2.75;;
63010;SDS011;49100;48.842;2.166;2022-09-27T18:38:02;5.00;;;1.75;;
63010;SDS011;49100;48.842;2.166;2022-09-27T18:40:47;4.25;;;4.25;;
63010;SDS011;49100;48.842;2.166;2022-09-27T18:43:32;9.25;;;4.00;;
63010;SDS011;49100;48.842;2.166;2022-09-27T18:46:17;9.00;;;5.75;;
63010;SDS011;49100;48.842;2.166;2022-09-27T18:49:05;3.00;;;3.00;;
63010;SDS011;49100;48.842;2.166;2022-09-27T18:51:51;2.50;;;2.00;;
63010;SDS011;49100;48.842;2.166;2022-09-27T18:54:36;3.75;;;3.00;;
63010;SDS011;49100;48.842;2.166;2022-09-27T18:57:23;5.25;;;3.75;;
63010;SDS011;49100;48.842;2.166;2022-09-27T19:00:08;3.00;;;3.00;;
63010;SDS011;49100;48.842;2.166;2022-09-27T19:02:52;4.75;;;4.75;;
63010;SDS011;49100;48.842;2.166;2022-09-27T19:05:37;8.25;;;7.00;;
63010;SDS011;49100;48.842;2.166;2022-09-27T19:08:22;6.50;;;5.25;;
63010;SDS011;49100;48.842;2.166;2022-09-27T19:11:08;4.25;;;3.00;;
63010;SDS011;49100;48.842;2.166;2022-09-27T19:13:54;2.50;;;2.25;;
63010;SDS011;49100;48.842;2.166;2022-09-27T19:16:40;5.75;;;4.00;;
63010;SDS011;49100;48.842;2.166;2022-09-27T19:19:24;6.50;;;4.25;;
63010;SDS011;49100;48.842;2.166;2022-09-27T19:22:09;3.25;;;3.25;;
63010;SDS011;49100;48.842;2.166;2022-09-27T19:24:53;3.50;;;1.50;;
63010;SDS011;49100;48.842;2.166;2022-09-27T19:27:38;4.25;;;2.00;;
63010;SDS011;49100;48.842;2.166;2022-09-27T19:30:22;3.00;;;3.00;;
63010;SDS011;49100;48.842;2.166;2022-09-27T19:33:07;6.00;;;4.00;;
63010;SDS011;49100;48.842;2.166;2022-09-27T19:35:51;5.25;;;3.50;;
63010;SDS011;49100;48.842;2.166;2022-09-27T19:38:36;4.50;;;3.00;;
63010;SDS011;49100;48.842;2.166;2022-09-27T19:41:21;4.50;;;3.25;;
63010;SDS011;49100;48.842;2.166;2022-09-27T19:44:05;7.00;;;5.25;;
63010;SDS011;49100;48.842;2.166;2022-09-27T19:46:50;9.25;;;6.25;;
63010;SDS011;49100;48.842;2.166;2022-09-27T19:49:34;6.50;;;4.00;;
63010;SDS011;49100;48.842;2.166;2022-09-27T19:52:18;4.25;;;4.00;;
63010;SDS011;49100;48.842;2.166;2022-09-27T19:55:03;7.25;;;3.25;;
63010;SDS011;49100;48.842;2.166;2022-09-27T19:57:48;11.00;;;8.50;;
63010;SDS011;49100;48.842;2.166;2022-09-27T20:00:33;12.75;;;8.00;;
63010;SDS011;49100;48.842;2.166;2022-09-27T20:03:17;11.50;;;11.00;;
63010;SDS011;49100;48.842;2.166;2022-09-27T20:06:02;2.75;;;1.75;;
63010;SDS011;49100;48.842;2.166;2022-09-27T20:08:48;4.00;;;3.50;;
63010;SDS011;49100;48.842;2.166;2022-09-27T20:11:33;12.25;;;6.25;;
63010;SDS011;49100;48.842;2.166;2022-09-27T20:14:17;9.00;;;6.25;;
63010;SDS011;49100;48.842;2.166;2022-09-27T20:17:02;7.75;;;6.50;;
63010;SDS011;49100;48.842;2.166;2022-09-27T20:19:46;8.75;;;4.00;;
63010;SDS011;49100;48.842;2.166;2022-09-27T20:22:31;7.00;;;5.00;;
63010;SDS011;49100;48.842;2.166;2022-09-27T20:25:15;11.00;;;5.50;;
63010;SDS011;49100;48.842;2.166;2022-09-27T20:28:03;5.00;;;3.25;;
63010;SDS011;49100;48.842;2.166;2022-09-27T20:30:58;5.00;;;2.00;;
63010;SDS011;49100;48.842;2.166;2022-09-27T20:33:43;5.25;;;2.75;;
63010;SDS011;49100;48.842;2.166;2022-09-27T20:36:33;3.75;;;3.75;;
63010;SDS011;49100;48.842;2.166;2022-09-27T20:39:22;2.75;;;2.75;;
63010;SDS011;49100;48.842;2.166;2022-09-27T20:42:07;3.00;;;3.00;;
63010;SDS011;49100;48.842;2.166;2022-09-27T20:44:51;5.25;;;4.25;;
63010;SDS011;49100;48.842;2.166;2022-09-27T20:47:36;4.75;;;3.00;;
63010;SDS011;49100;48.842;2.166;2022-09-27T20:50:22;4.75;;;3.25;;
63010;SDS011;49100;48.842;2.166;2022-09-27T20:53:06;6.50;;;4.00;;
63010;SDS011;49100;48.842;2.166;2022-09-27T20:55:54;4.25;;;4.00;;
63010;SDS011;49100;48.842;2.166;2022-09-27T20:58:40;3.75;;;3.75;;
63010;SDS011;49100;48.842;2.166;2022-09-27T21:01:25;3.50;;;3.00;;
63010;SDS011;49100;48.842;2.166;2022-09-27T21:04:10;3.25;;;3.00;;
63010;SDS011;49100;48.842;2.166;2022-09-27T21:06:56;11.50;;;9.00;;
63010;SDS011;49100;48.842;2.166;2022-09-27T21:09:41;11.25;;;7.75;;
63010;SDS011;49100;48.842;2.166;2022-09-27T21:12:27;11.75;;;9.50;;
63010;SDS011;49100;48.842;2.166;2022-09-27T21:15:12;11.75;;;10.50;;
63010;SDS011;49100;48.842;2.166;2022-09-27T21:17:57;8.25;;;5.75;;
63010;SDS011;49100;48.842;2.166;2022-09-27T21:20:41;7.25;;;4.25;;
63010;SDS011;49100;48.842;2.166;2022-09-27T21:23:26;6.00;;;4.00;;
63010;SDS011;49100;48.842;2.166;2022-09-27T21:26:14;6.50;;;3.75;;
63010;SDS011;49100;48.842;2.166;2022-09-27T21:29:00;5.50;;;4.00;;
63010;SDS011;49100;48.842;2.166;2022-09-27T21:31:49;3.00;;;3.00;;
63010;SDS011;49100;48.842;2.166;2022-09-27T21:34:33;6.00;;;3.50;;
63010;SDS011;49100;48.842;2.166;2022-09-27T21:37:17;7.00;;;3.50;;
63010;SDS011;49100;48.842;2.166;2022-09-27T21:40:02;5.25;;;2.75;;
63010;SDS011;49100;48.842;2.166;2022-09-27T21:42:48;7.00;;;4.00;;
63010;SDS011;49100;48.842;2.166;2022-09-27T21:45:33;66.00;;;49.25;;
63010;SDS011;49100;48.842;2.166;2022-09-27T21:48:17;42.75;;;35.75;;
63010;SDS011;49100;48.842;2.166;2022-09-27T21:51:06;51.50;;;41.00;;
63010;SDS011;49100;48.842;2.166;2022-09-27T21:53:56;53.50;;;42.50;;
63010;SDS011;49100;48.842;2.166;2022-09-27T21:56:43;28.75;;;26.00;;
63010;SDS011;49100;48.842;2.166;2022-09-27T21:59:27;11.25;;;9.00;;
63010;SDS011;49100;48.842;2.166;2022-09-27T22:02:11;6.50;;;4.25;;
63010;SDS011;49100;48.842;2.166;2022-09-27T22:04:56;5.00;;;4.00;;
63010;SDS011;49100;48.842;2.166;2022-09-27T22:07:42;7.50;;;5.00;;
63010;SDS011;49100;48.842;2.166;2022-09-27T22:10:26;8.50;;;5.25;;
63010;SDS011;49100;48.842;2.166;2022-09-27T22:13:11;9.25;;;2.25;;
63010;SDS011;49100;48.842;2.166;2022-09-27T22:16:00;3.75;;;3.00;;
63010;SDS011;49100;48.842;2.166;2022-09-27T22:18:50;3.00;;;3.00;;
63010;SDS011;49100;48.842;2.166;2022-09-27T22:21:36;7.50;;;3.00;;
63010;SDS011;49100;48.842;2.166;2022-09-27T22:24:21;6.75;;;3.00;;
63010;SDS011;49100;48.842;2.166;2022-09-27T22:27:05;9.50;;;4.75;;
63010;SDS011;49100;48.842;2.166;2022-09-27T22:29:49;4.75;;;3.00;;
63010;SDS011;49100;48.842;2.166;2022-09-27T22:32:34;7.75;;;2.25;;
63010;SDS011;49100;48.842;2.166;2022-09-27T22:35:19;5.75;;;3.00;;
63010;SDS011;49100;48.842;2.166;2022-09-27T22:38:04;7.00;;;3.00;;
63010;SDS011;49100;48.842;2.166;2022-09-27T22:40:55;5.75;;;4.25;;
63010;SDS011;49100;48.842;2.166;2022-09-27T22:43:44;7.50;;;4.00;;
63010;SDS011;49100;48.842;2.166;2022-09-27T22:46:29;3.50;;;2.25;;
63010;SDS011;49100;48.842;2.166;2022-09-27T22:49:13;7.00;;;6.75;;
63010;SDS011;49100;48.842;2.166;2022-09-27T22:51:58;5.50;;;5.50;;
63010;SDS011;49100;48.842;2.166;2022-09-27T22:54:42;9.00;;;5.00;;
63010;SDS011;49100;48.842;2.166;2022-09-27T22:57:27;4.75;;;4.25;;
63010;SDS011;49100;48.842;2.166;2022-09-27T23:00:11;8.25;;;5.00;;
63010;SDS011;49100;48.842;2.166;2022-09-27T23:02:56;5.25;;;5.25;;
63010;SDS011;49100;48.842;2.166;2022-09-27T23:05:41;7.00;;;4.00;;
63010;SDS011;49100;48.842;2.166;2022-09-27T23:08:25;9.00;;;4.25;;
63010;SDS011;49100;48.842;2.166;2022-09-27T23:11:11;11.00;;;2.75;;
63010;SDS011;49100;48.842;2.166;2022-09-27T23:13:56;6.25;;;5.25;;
63010;SDS011;49100;48.842;2.166;2022-09-27T23:16:41;8.50;;;5.25;;
63010;SDS011;49100;48.842;2.166;2022-09-27T23:19:25;11.50;;;5.00;;
63010;SDS011;49100;48.842;2.166;2022-09-27T23:22:10;9.00;;;5.00;;
63010;SDS011;49100;48.842;2.166;2022-09-27T23:24:54;6.25;;;4.00;;
63010;SDS011;49100;48.842;2.166;2022-09-27T23:27:39;5.00;;;3.50;;
63010;SDS011;49100;48.842;2.166;2022-09-27T23:30:29;7.00;;;3.00;;
63010;SDS011;49100;48.842;2.166;2022-09-27T23:33:14;5.00;;;4.25;;
63010;SDS011;49100;48.842;2.166;2022-09-27T23:35:59;4.00;;;2.50;;
63010;SDS011;49100;48.842;2.166;2022-09-27T23:38:45;6.25;;;3.25;;
63010;SDS011;49100;48.842;2.166;2022-09-27T23:41:31;7.50;;;3.75;;
63010;SDS011;49100;48.842;2.166;2022-09-27T23:44:15;13.00;;;5.25;;
63010;SDS011;49100;48.842;2.166;2022-09-27T23:47:00;9.25;;;6.00;;
63010;SDS011;49100;48.842;2.166;2022-09-27T23:49:44;4.75;;;3.50;;
63010;SDS011;49100;48.842;2.166;2022-09-27T23:52:29;6.25;;;5.00;;
63010;SDS011;49100;48.842;2.166;2022-09-27T23:55:13;7.50;;;5.00;;
63010;SDS011;49100;48.842;2.166;2022-09-27T23:57:58;7.00;;;4.00;;
